Time;durP1;ratioP1;P1;durP2;ratioP2;P2;SDS_P1;SDS_P2;PMS_P1;PMS_P2;Temp;Humidity;BMP_temperature;BMP_pressure;BME280_temperature;BME280_humidity;BME280_pressure;Samples;Min_cycle;Max_cycle;Signal;HPM_P1;HPM_P2
2023/01/02 00:00:18;;;;;;;9.10;2.22;;;8.40;99.90;;;;;;4982582;28;20432;-60
2023/01/02 00:02:47;;;;;;;6.55;2.28;;;8.30;99.90;;;;;;4983381;28;20286;-59
2023/01/02 00:05:14;;;;;;;6.90;2.28;;;8.20;99.90;;;;;;4983207;28;20316;-59
2023/01/02 00:07:42;;;;;;;10.85;1.85;;;8.20;99.90;;;;;;4983704;28;20402;-61
2023/01/02 00:10:09;;;;;;;5.75;1.83;;;8.20;99.90;;;;;;4982395;28;20414;-60
2023/01/02 00:12:36;;;;;;;6.15;2.22;;;8.20;99.90;;;;;;4965661;28;20079;-62
2023/01/02 00:15:03;;;;;;;8.38;1.70;;;8.20;99.90;;;;;;4983030;28;20137;-61
2023/01/02 00:17:30;;;;;;;6.15;2.22;;;8.20;99.90;;;;;;4980888;28;20047;-60
2023/01/02 00:19:57;;;;;;;3.35;1.63;;;8.20;99.90;;;;;;4965612;28;20122;-61
2023/01/02 00:22:24;;;;;;;9.60;2.38;;;8.10;99.90;;;;;;4982013;28;20276;-60
2023/01/02 00:24:50;;;;;;;10.75;2.53;;;8.20;99.90;;;;;;4979913;28;20131;-61
2023/01/02 00:27:17;;;;;;;7.53;1.73;;;8.10;99.90;;;;;;4979106;28;20255;-62
2023/01/02 00:29:44;;;;;;;6.25;2.40;;;8.10;99.90;;;;;;4980577;28;20047;-61
2023/01/02 00:32:11;;;;;;;9.13;1.75;;;8.10;99.90;;;;;;4980433;28;20070;-61
2023/01/02 00:34:37;;;;;;;9.05;2.90;;;8.10;99.90;;;;;;4981350;28;20074;-58
2023/01/02 00:37:04;;;;;;;7.97;2.47;;;8.10;99.90;;;;;;4980462;28;20042;-61
2023/01/02 00:39:32;;;;;;;7.20;1.95;;;8.10;99.90;;;;;;4979829;28;20053;-60
2023/01/02 00:42:00;;;;;;;7.00;1.60;;;8.10;99.90;;;;;;4980072;28;20129;-59
2023/01/02 00:44:27;;;;;;;5.78;1.55;;;8.10;99.90;;;;;;4980914;28;20531;-60
2023/01/02 00:46:54;;;;;;;3.90;1.67;;;8.10;99.90;;;;;;4980281;28;20070;-61
2023/01/02 00:49:21;;;;;;;7.72;1.70;;;8.10;99.90;;;;;;4947781;28;20849;-61
2023/01/02 00:51:47;;;;;;;7.30;1.60;;;8.00;99.90;;;;;;4979258;28;20126;-62
2023/01/02 00:54:15;;;;;;;5.43;1.92;;;8.00;99.90;;;;;;4982481;28;20043;-60
2023/01/02 00:56:43;;;;;;;2.40;1.15;;;8.00;99.90;;;;;;4983133;28;20137;-60
2023/01/02 00:59:10;;;;;;;3.70;1.92;;;8.00;99.90;;;;;;4982369;28;20038;-60
2023/01/02 01:01:37;;;;;;;4.20;1.77;;;8.00;99.90;;;;;;4962249;29;20059;-61
2023/01/02 01:04:04;;;;;;;3.53;1.63;;;8.00;99.90;;;;;;4952926;29;20103;-61
2023/01/02 01:06:32;;;;;;;7.30;1.80;;;8.00;99.90;;;;;;4965049;29;20054;-61
2023/01/02 01:08:59;;;;;;;6.40;1.48;;;8.00;99.90;;;;;;4953608;28;20090;-61
2023/01/02 01:11:27;;;;;;;7.88;2.20;;;8.00;99.90;;;;;;4966062;29;20058;-60
2023/01/02 01:13:54;;;;;;;7.53;1.92;;;8.00;99.90;;;;;;4951769;29;20054;-60
2023/01/02 01:16:21;;;;;;;3.78;2.00;;;7.90;99.90;;;;;;4925979;29;20068;-61
2023/01/02 01:18:47;;;;;;;6.32;1.45;;;7.90;99.90;;;;;;4949957;29;20059;-61
2023/01/02 01:21:16;;;;;;;3.72;1.33;;;7.80;99.90;;;;;;4947619;28;20083;-60
2023/01/02 01:23:43;;;;;;;3.70;1.10;;;7.80;99.90;;;;;;4952565;29;20083;-61
2023/01/02 01:26:11;;;;;;;5.75;1.95;;;7.80;99.90;;;;;;4947843;29;20051;-62
2023/01/02 01:28:38;;;;;;;6.72;1.77;;;7.80;99.90;;;;;;4949442;29;20148;-61
2023/01/02 01:31:10;;;;;;;2.55;1.45;;;7.80;99.90;;;;;;4951455;29;20052;-60
2023/01/02 01:33:37;;;;;;;5.75;1.38;;;7.80;99.90;;;;;;4950463;29;20079;-60
2023/01/02 01:36:11;;;;;;;3.85;1.30;;;7.80;99.90;;;;;;4952867;29;20075;-60
2023/01/02 01:38:38;;;;;;;;;;;7.80;99.90;;;;;;4947745;29;20120;-60
2023/01/02 01:41:06;;;;;;;4.80;1.45;;;7.80;99.90;;;;;;4956213;28;19937;-59
2023/01/02 01:43:38;;;;;;;3.90;1.85;;;7.70;99.90;;;;;;4947767;29;20412;-61
2023/01/02 01:46:07;;;;;;;7.85;1.10;;;7.70;99.90;;;;;;4939286;29;20051;-62
2023/01/02 01:48:34;;;;;;;5.93;1.40;;;7.70;99.90;;;;;;4931708;29;20149;-61
2023/01/02 01:51:01;;;;;;;6.75;1.02;;;7.70;99.90;;;;;;4956136;29;20107;-60
2023/01/02 01:53:28;;;;;;;4.43;1.55;;;7.70;99.90;;;;;;4944674;29;20056;-60
2023/01/02 01:55:57;;;;;;;4.65;1.38;;;7.60;99.90;;;;;;4954472;29;20176;-60
2023/01/02 01:58:34;;;;;;;6.63;1.23;;;7.60;99.90;;;;;;4948629;29;20082;-60
2023/01/02 02:01:01;;;;;;;2.78;1.00;;;7.60;99.90;;;;;;4949204;29;20071;-60
2023/01/02 02:03:28;;;;;;;5.45;1.08;;;7.60;99.90;;;;;;4977645;28;20055;-59
2023/01/02 02:05:56;;;;;;;8.98;1.60;;;7.60;99.90;;;;;;4947457;29;20125;-60
2023/01/02 02:08:42;;;;;;;5.95;1.00;;;7.60;99.90;;;;;;4963561;29;20047;-60
2023/01/02 02:11:10;;;;;;;1.95;0.70;;;7.50;99.90;;;;;;4946202;29;20154;-60
2023/01/02 02:13:36;;;;;;;3.60;1.08;;;7.50;99.90;;;;;;4947067;29;20054;-61
2023/01/02 02:16:06;;;;;;;8.23;4.00;;;7.50;99.90;;;;;;4964278;29;20051;-61
2023/01/02 02:18:55;;;;;;;1.90;0.88;;;7.40;99.90;;;;;;4965371;28;20506;-61
2023/01/02 02:21:43;;;;;;;5.28;1.08;;;7.50;99.90;;;;;;4966150;29;20126;-60
2023/01/02 02:24:35;;;;;;;6.85;1.00;;;7.40;99.90;;;;;;4965169;29;20142;-60
2023/01/02 02:27:39;;;;;;;1.02;0.80;;;7.40;99.90;;;;;;4961348;29;20047;-61
2023/01/02 02:30:24;;;;;;;4.90;1.00;;;7.40;99.90;;;;;;4969285;28;20079;-61
2023/01/02 02:33:04;;;;;;;6.75;1.13;;;7.50;99.90;;;;;;4940145;29;20147;-61
2023/01/02 02:35:50;;;;;;;3.70;0.90;;;7.40;99.90;;;;;;4963963;29;20070;-60
2023/01/02 02:38:46;;;;;;;4.72;1.30;;;7.40;99.90;;;;;;4964969;29;20082;-60
2023/01/02 02:41:32;;;;;;;8.65;1.05;;;7.40;99.90;;;;;;4955007;28;20076;-60
2023/01/02 02:44:07;;;;;;;4.00;1.08;;;7.40;99.90;;;;;;4969028;29;20051;-60
2023/01/02 02:46:33;;;;;;;3.67;1.30;;;7.40;99.90;;;;;;4970091;29;20130;-60
2023/01/02 02:49:07;;;;;;;2.30;0.95;;;7.40;99.90;;;;;;4970401;29;20062;-61
2023/01/02 02:51:35;;;;;;;5.15;1.00;;;7.40;99.90;;;;;;4953097;29;20083;-61
2023/01/02 02:54:10;;;;;;;5.53;1.08;;;7.40;99.90;;;;;;4623159;28;10000167;-61
2023/01/02 02:56:37;;;;;;;2.58;0.80;;;7.40;99.90;;;;;;4967999;29;20143;-61
2023/01/02 02:59:03;;;;;;;4.90;1.40;;;7.40;99.90;;;;;;4969159;29;20107;-61
2023/01/02 03:01:30;;;;;;;5.00;1.20;;;7.40;99.90;;;;;;4970855;28;20097;-59
2023/01/02 03:03:57;;;;;;;5.03;1.60;;;7.40;99.90;;;;;;4972604;28;20051;-60
2023/01/02 03:06:47;;;;;;;8.45;1.35;;;7.40;99.90;;;;;;4988557;28;20114;-60
2023/01/02 03:09:20;;;;;;;4.47;0.82;;;7.40;99.90;;;;;;4972320;28;20074;-60
2023/01/02 03:12:02;;;;;;;4.80;1.48;;;7.40;99.90;;;;;;4988983;28;20081;-60
2023/01/02 03:14:39;;;;;;;2.67;1.55;;;7.40;99.90;;;;;;4972257;28;20054;-61
2023/01/02 03:17:39;;;;;;;5.50;1.38;;;7.40;99.90;;;;;;4971548;28;20110;-60
2023/01/02 03:20:09;;;;;;;4.97;2.03;;;7.40;99.90;;;;;;4975125;28;20066;-60
2023/01/02 03:22:38;;;;;;;1.33;0.77;;;7.40;99.90;;;;;;4973526;28;20070;-60
2023/01/02 03:25:05;;;;;;;3.00;1.10;;;7.40;99.90;;;;;;4972166;28;20483;-60
2023/01/02 03:27:33;;;;;;;8.63;1.02;;;7.40;99.90;;;;;;4954816;28;20066;-61
2023/01/02 03:30:08;;;;;;;8.30;1.20;;;7.40;99.90;;;;;;4971261;28;20138;-61
2023/01/02 03:32:37;;;;;;;7.00;1.48;;;7.30;99.90;;;;;;4955780;28;20438;-61
2023/01/02 03:35:07;;;;;;;4.70;0.95;;;7.30;99.90;;;;;;4971462;28;20050;-61
2023/01/02 03:37:36;;;;;;;5.50;1.25;;;7.30;99.90;;;;;;4955814;28;20446;-61
2023/01/02 03:40:06;;;;;;;8.80;1.38;;;7.30;99.90;;;;;;4955791;28;20051;-61
2023/01/02 03:42:36;;;;;;;10.15;1.95;;;7.20;99.90;;;;;;4956590;28;20110;-61
2023/01/02 03:45:20;;;;;;;7.28;1.90;;;7.30;99.90;;;;;;4978979;28;20110;-61
2023/01/02 03:47:59;;;;;;;5.15;1.73;;;7.30;99.90;;;;;;4971478;28;20058;-61
2023/01/02 03:50:32;;;;;;;4.80;1.58;;;7.20;99.90;;;;;;4988076;28;20055;-61
2023/01/02 03:52:59;;;;;;;5.93;1.37;;;7.20;99.90;;;;;;4987811;28;20038;-61
2023/01/02 03:55:26;;;;;;;5.40;1.65;;;7.30;99.90;;;;;;4971971;28;20076;-62
2023/01/02 03:58:02;;;;;;;2.10;1.00;;;7.20;99.90;;;;;;4972016;28;20074;-61
2023/01/02 04:00:36;;;;;;;11.07;1.50;;;7.20;99.90;;;;;;4989663;28;20085;-61
2023/01/02 04:03:15;;;;;;;5.97;1.05;;;7.20;99.90;;;;;;4956823;28;20057;-61
2023/01/02 04:05:53;;;;;;;7.90;2.15;;;7.20;99.90;;;;;;4972462;28;20106;-61
2023/01/02 04:08:36;;;;;;;5.97;1.63;;;7.20;99.90;;;;;;4971281;28;20047;-61
2023/01/02 04:11:03;;;;;;;6.13;1.58;;;7.20;99.90;;;;;;4982013;28;20047;-61
2023/01/02 04:13:33;;;;;;;6.97;1.52;;;7.20;99.90;;;;;;4972135;28;20147;-61
2023/01/02 04:16:01;;;;;;;7.28;1.70;;;7.30;99.90;;;;;;4956224;28;20074;-61
2023/01/02 04:18:30;;;;;;;5.55;1.65;;;7.30;99.90;;;;;;4972875;28;20085;-61
2023/01/02 04:20:59;;;;;;;4.90;1.33;;;7.30;99.90;;;;;;4956794;28;20053;-62
2023/01/02 04:23:47;;;;;;;6.05;1.38;;;7.30;99.90;;;;;;4972043;28;20070;-59
2023/01/02 04:26:25;;;;;;;3.15;1.00;;;7.30;99.90;;;;;;4955872;28;20086;-59
2023/01/02 04:28:52;;;;;;;7.43;1.40;;;7.40;99.90;;;;;;4956222;28;20142;-60
2023/01/02 04:31:36;;;;;;;4.78;1.30;;;7.40;99.90;;;;;;4971522;28;20133;-59
2023/01/02 04:34:04;;;;;;;6.45;1.15;;;7.40;99.90;;;;;;4956351;28;20130;-59
2023/01/02 04:36:31;;;;;;;12.35;2.05;;;7.40;99.90;;;;;;4990077;28;20050;-59
2023/01/02 04:38:58;;;;;;;3.15;1.38;;;7.40;99.90;;;;;;4956140;28;20089;-59
2023/01/02 04:41:28;;;;;;;4.45;0.98;;;7.40;99.90;;;;;;4988790;28;20115;-60
2023/01/02 04:43:55;;;;;;;3.42;1.25;;;7.40;99.90;;;;;;4957912;28;20047;-60
2023/01/02 04:46:22;;;;;;;4.28;1.02;;;7.50;99.90;;;;;;4988772;28;20110;-60
2023/01/02 04:48:49;;;;;;;5.05;1.23;;;7.50;99.90;;;;;;4971725;28;20081;-60
2023/01/02 04:51:16;;;;;;;8.63;2.38;;;7.50;99.90;;;;;;4971947;28;20070;-60
2023/01/02 04:53:45;;;;;;;11.52;2.50;;;7.50;99.90;;;;;;4989408;28;20521;-60
2023/01/02 04:56:12;;;;;;;5.30;1.38;;;7.50;99.90;;;;;;4989549;28;20081;-60
2023/01/02 04:58:40;;;;;;;7.15;1.75;;;7.60;99.90;;;;;;4989402;28;20061;-60
2023/01/02 05:01:08;;;;;;;5.50;1.50;;;7.60;99.90;;;;;;4988743;28;20483;-60
2023/01/02 05:03:39;;;;;;;3.53;1.35;;;7.60;99.90;;;;;;4987917;28;20082;-59
2023/01/02 05:06:06;;;;;;;6.18;1.50;;;7.60;99.90;;;;;;4988855;28;20066;-60
2023/01/02 05:08:33;;;;;;;8.43;1.92;;;7.60;99.90;;;;;;4972830;28;20115;-59
2023/01/02 05:11:09;;;;;;;4.85;1.42;;;7.60;99.90;;;;;;4971080;28;20138;-61
2023/01/02 05:13:36;;;;;;;6.20;2.10;;;7.60;99.90;;;;;;4956675;28;20057;-61
2023/01/02 05:16:03;;;;;;;7.47;1.48;;;7.60;99.90;;;;;;4955786;28;20043;-60
2023/01/02 05:18:30;;;;;;;8.30;1.58;;;7.70;99.90;;;;;;4972609;28;20051;-61
2023/01/02 05:21:05;;;;;;;6.22;1.30;;;7.60;99.90;;;;;;4988255;28;20081;-61
2023/01/02 05:23:49;;;;;;;7.68;1.73;;;7.70;99.90;;;;;;4953999;28;20047;-60
2023/01/02 05:26:16;;;;;;;3.20;1.48;;;7.70;99.90;;;;;;4988716;28;20067;-60
2023/01/02 05:28:43;;;;;;;10.18;1.65;;;7.70;99.90;;;;;;4988103;28;20691;-61
2023/01/02 05:31:10;;;;;;;6.38;1.00;;;7.70;99.90;;;;;;4986772;28;20082;-60
2023/01/02 05:33:37;;;;;;;6.70;1.30;;;7.70;99.90;;;;;;4976725;28;20150;-60
2023/01/02 05:36:07;;;;;;;4.78;1.33;;;7.80;99.90;;;;;;4988282;28;20060;-60
2023/01/02 05:38:34;;;;;;;6.68;1.33;;;7.80;99.90;;;;;;4989081;28;20051;-60
2023/01/02 05:41:05;;;;;;;1.50;0.88;;;7.80;99.90;;;;;;4987403;28;20137;-60
2023/01/02 05:43:34;;;;;;;5.88;1.55;;;7.80;99.90;;;;;;4968175;28;20066;-61
2023/01/02 05:46:16;;;;;;;9.05;1.67;;;7.90;99.90;;;;;;4988639;28;20062;-62
2023/01/02 05:48:43;;;;;;;8.82;2.70;;;7.90;99.90;;;;;;4984852;28;20491;-61
2023/01/02 05:51:11;;;;;;;9.75;1.33;;;8.00;99.90;;;;;;4969992;28;20066;-62
2023/01/02 05:53:38;;;;;;;5.55;1.77;;;7.90;99.90;;;;;;4988319;28;20046;-61
2023/01/02 05:56:07;;;;;;;7.68;1.27;;;7.90;99.90;;;;;;4973931;28;20042;-61
2023/01/02 05:58:34;;;;;;;6.80;1.33;;;7.90;99.90;;;;;;4990456;28;20039;-61
2023/01/02 06:01:05;;;;;;;11.90;1.52;;;7.90;99.90;;;;;;4990438;28;20150;-63
2023/01/02 06:03:32;;;;;;;2.35;1.02;;;7.90;99.90;;;;;;4972618;28;20058;-62
2023/01/02 06:06:06;;;;;;;3.75;0.88;;;8.00;99.90;;;;;;4971070;28;20057;-61
2023/01/02 06:08:33;;;;;;;6.43;1.25;;;8.00;99.90;;;;;;4986173;28;20073;-61
2023/01/02 06:11:01;;;;;;;6.22;1.50;;;8.00;99.90;;;;;;4968972;28;20114;-61
2023/01/02 06:13:28;;;;;;;4.13;1.30;;;8.00;99.90;;;;;;4970015;28;20103;-62
2023/01/02 06:15:56;;;;;;;6.93;1.35;;;8.00;99.90;;;;;;4970214;28;20055;-62
2023/01/02 06:18:23;;;;;;;10.00;1.23;;;8.00;99.90;;;;;;4970150;28;20051;-62
2023/01/02 06:20:49;;;;;;;4.97;1.05;;;8.00;99.90;;;;;;4986940;28;20039;-61
2023/01/02 06:23:16;;;;;;;4.93;1.17;;;8.00;99.90;;;;;;4988934;28;20047;-60
2023/01/02 06:25:43;;;;;;;6.65;3.72;;;8.00;99.90;;;;;;4990376;28;20085;-62
2023/01/02 06:28:10;;;;;;;4.40;0.90;;;8.10;99.90;;;;;;4988918;28;20118;-61
2023/01/02 06:30:36;;;;;;;5.65;1.02;;;8.00;99.90;;;;;;4989352;28;20334;-61
2023/01/02 06:33:03;;;;;;;9.35;1.20;;;8.10;99.90;;;;;;4970882;28;20125;-62
2023/01/02 06:35:30;;;;;;;5.68;1.10;;;8.10;99.90;;;;;;4988515;28;20070;-61
2023/01/02 06:37:57;;;;;;;4.70;1.02;;;8.10;99.90;;;;;;4987490;28;20058;-60
2023/01/02 06:40:23;;;;;;;8.15;1.40;;;8.20;99.90;;;;;;4984197;28;20110;-60
2023/01/02 06:42:53;;;;;;;4.55;1.17;;;8.20;99.90;;;;;;4985417;28;20118;-60
2023/01/02 06:45:25;;;;;;;6.25;1.65;;;8.20;99.90;;;;;;4984742;28;20046;-60
2023/01/02 06:47:56;;;;;;;10.32;2.97;;;8.20;99.90;;;;;;4986086;28;20047;-60
2023/01/02 06:50:23;;;;;;;4.50;1.10;;;8.20;99.90;;;;;;4967796;28;20074;-59
2023/01/02 06:52:56;;;;;;;4.30;1.17;;;8.20;99.90;;;;;;4985507;28;20059;-60
2023/01/02 06:55:23;;;;;;;11.00;1.67;;;8.30;99.90;;;;;;4986019;28;20047;-60
2023/01/02 06:57:50;;;;;;;8.88;1.30;;;8.30;99.90;;;;;;4987503;28;20110;-60
2023/01/02 07:00:17;;;;;;;5.70;1.20;;;8.30;99.90;;;;;;4987962;28;20092;-61
2023/01/02 07:02:44;;;;;;;9.80;1.35;;;8.30;99.90;;;;;;4988405;28;20069;-60
2023/01/02 07:05:11;;;;;;;4.75;1.27;;;8.30;99.90;;;;;;4971636;28;20051;-60
2023/01/02 07:07:38;;;;;;;7.20;1.13;;;8.30;99.90;;;;;;4988223;28;20078;-60
2023/01/02 07:10:05;;;;;;;7.22;1.13;;;8.30;99.90;;;;;;4988570;28;20062;-59
2023/01/02 07:12:36;;;;;;;3.00;1.38;;;8.30;99.90;;;;;;4988088;28;20102;-59
2023/01/02 07:15:03;;;;;;;5.80;1.40;;;8.20;99.90;;;;;;4988056;28;20046;-60
2023/01/02 07:17:31;;;;;;;7.50;2.10;;;8.20;99.90;;;;;;4988363;28;20050;-60
2023/01/02 07:19:58;;;;;;;5.13;1.20;;;8.10;99.90;;;;;;4970996;28;20050;-60
2023/01/02 07:22:27;;;;;;;4.35;0.80;;;8.10;99.90;;;;;;4987254;28;20105;-60
2023/01/02 07:24:54;;;;;;;4.57;1.30;;;8.10;99.90;;;;;;4989150;28;20051;-60
2023/01/02 07:27:21;;;;;;;11.27;1.77;;;8.00;99.90;;;;;;4974320;28;20066;-61
2023/01/02 07:29:48;;;;;;;7.07;1.13;;;8.00;99.90;;;;;;4991637;28;20042;-60
2023/01/02 07:32:14;;;;;;;6.45;1.42;;;8.00;99.90;;;;;;4992077;28;20043;-60
2023/01/02 07:34:41;;;;;;;4.47;1.08;;;7.90;99.90;;;;;;4992256;28;20070;-60
2023/01/02 07:37:08;;;;;;;5.25;1.10;;;7.80;99.90;;;;;;4991492;28;20089;-60
2023/01/02 07:39:35;;;;;;;3.80;1.15;;;7.80;99.90;;;;;;4991950;28;20054;-61
2023/01/02 07:42:01;;;;;;;8.27;1.35;;;7.80;99.90;;;;;;4991122;28;20050;-62
2023/01/02 07:44:28;;;;;;;2.80;1.10;;;7.70;99.90;;;;;;4991714;28;20106;-61
2023/01/02 07:46:55;;;;;;;10.90;2.05;;;7.60;99.90;;;;;;4992366;28;20360;-61
2023/01/02 07:49:21;;;;;;;6.57;1.80;;;7.60;99.90;;;;;;4991610;28;20107;-61
2023/01/02 07:51:48;;;;;;;6.03;1.35;;;7.50;99.90;;;;;;4974260;28;20051;-61
2023/01/02 07:54:15;;;;;;;4.47;1.25;;;7.50;99.90;;;;;;4990631;28;20518;-61
2023/01/02 07:56:42;;;;;;;6.57;1.00;;;7.50;99.90;;;;;;4991175;28;20069;-61
2023/01/02 07:59:08;;;;;;;7.30;1.25;;;7.50;99.90;;;;;;4991165;28;20139;-61
2023/01/02 08:01:35;;;;;;;4.88;1.40;;;7.50;99.90;;;;;;4992004;28;20078;-61
2023/01/02 08:04:02;;;;;;;3.00;0.90;;;7.40;99.90;;;;;;4991654;28;20051;-62
2023/01/02 08:06:29;;;;;;;2.90;0.85;;;7.40;99.90;;;;;;4991071;28;20043;-62
2023/01/02 08:08:56;;;;;;;8.77;2.10;;;7.40;99.90;;;;;;4991921;28;20074;-59
2023/01/02 08:11:22;;;;;;;10.82;1.65;;;7.40;99.90;;;;;;4990840;28;20322;-60
2023/01/02 08:13:49;;;;;;;6.68;1.25;;;7.30;99.90;;;;;;4991451;28;20054;-59
2023/01/02 08:16:18;;;;;;;8.77;1.20;;;7.30;99.90;;;;;;4974719;28;20054;-60
2023/01/02 08:18:45;;;;;;;3.72;1.42;;;7.30;99.90;;;;;;4974255;28;20071;-60
2023/01/02 08:21:13;;;;;;;11.02;1.38;;;7.20;99.90;;;;;;4991686;28;20098;-60
2023/01/02 08:23:39;;;;;;;7.40;1.08;;;7.20;99.90;;;;;;4990527;28;20039;-61
2023/01/02 08:26:07;;;;;;;2.97;1.10;;;7.20;99.90;;;;;;4990451;28;20062;-61
2023/01/02 08:28:34;;;;;;;5.90;1.27;;;7.20;99.90;;;;;;4990443;28;20114;-61
2023/01/02 08:31:05;;;;;;;3.30;0.75;;;7.30;99.90;;;;;;4990664;28;20054;-60
2023/01/02 08:33:32;;;;;;;5.95;1.05;;;7.20;99.90;;;;;;4990028;28;20082;-61
2023/01/02 08:35:59;;;;;;;11.95;1.50;;;7.20;99.90;;;;;;4989702;28;20094;-59
2023/01/02 08:38:26;;;;;;;8.88;1.40;;;7.20;99.90;;;;;;4989402;28;20106;-59
2023/01/02 08:40:53;;;;;;;7.22;1.20;;;7.20;99.90;;;;;;4991275;28;20474;-61
2023/01/02 08:43:19;;;;;;;9.35;1.20;;;7.20;99.90;;;;;;4990031;28;20059;-61
2023/01/02 08:45:46;;;;;;;11.00;2.05;;;7.20;99.90;;;;;;4973031;28;20050;-61
2023/01/02 08:48:13;;;;;;;10.07;1.77;;;7.20;99.90;;;;;;4989355;28;20070;-61
2023/01/02 08:50:46;;;;;;;4.75;1.85;;;7.20;99.90;;;;;;4989664;28;20214;-62
2023/01/02 08:53:13;;;;;;;8.63;1.85;;;7.20;99.90;;;;;;4985185;28;20568;-60
2023/01/02 08:55:40;;;;;;;9.32;1.40;;;7.20;99.90;;;;;;4968884;28;20085;-60
2023/01/02 08:58:06;;;;;;;2.28;1.15;;;7.20;99.90;;;;;;4989404;28;20039;-60
2023/01/02 09:00:33;;;;;;;4.18;1.45;;;7.20;99.90;;;;;;4972960;28;20458;-62
2023/01/02 09:03:00;;;;;;;4.20;1.67;;;7.20;99.90;;;;;;4987742;28;20061;-61
2023/01/02 09:05:29;;;;;;;14.20;1.70;;;7.20;99.90;;;;;;4955330;28;20047;-60
2023/01/02 09:07:57;;;;;;;8.18;1.17;;;7.20;99.90;;;;;;4985398;28;20565;-62
2023/01/02 09:10:24;;;;;;;5.85;1.42;;;7.20;99.90;;;;;;4986910;28;20043;-61
2023/01/02 09:12:50;;;;;;;8.52;1.23;;;7.20;99.90;;;;;;4970271;28;20039;-61
2023/01/02 09:15:17;;;;;;;7.28;1.50;;;7.20;99.90;;;;;;4986838;28;20074;-60
2023/01/02 09:17:46;;;;;;;4.82;1.60;;;7.10;99.90;;;;;;4987280;28;20074;-60
2023/01/02 09:20:13;;;;;;;2.58;1.20;;;7.20;99.90;;;;;;4970385;28;20102;-61
2023/01/02 09:22:40;;;;;;;5.68;1.88;;;7.20;99.90;;;;;;4988686;28;20050;-61
2023/01/02 09:25:07;;;;;;;6.43;1.25;;;7.20;99.90;;;;;;4971251;28;20066;-60
2023/01/02 09:27:34;;;;;;;10.77;2.33;;;7.20;99.90;;;;;;4987858;28;20070;-60
2023/01/02 09:30:00;;;;;;;19.25;1.75;;;7.30;99.90;;;;;;4986740;28;20125;-59
2023/01/02 09:32:27;;;;;;;15.50;2.03;;;7.30;99.90;;;;;;4984529;28;20053;-61
2023/01/02 09:34:54;;;;;;;6.80;1.30;;;7.30;99.90;;;;;;4971790;28;20030;-61
2023/01/02 09:37:21;;;;;;;5.80;1.95;;;7.30;99.90;;;;;;4988682;28;20074;-61
2023/01/02 09:39:47;;;;;;;7.65;1.60;;;7.30;99.90;;;;;;4987004;28;20102;-61
2023/01/02 09:42:15;;;;;;;9.75;2.15;;;7.30;99.90;;;;;;4986069;28;20062;-61
2023/01/02 09:45:02;;;;;;;7.57;1.80;;;7.40;99.90;;;;;;4968511;28;20073;-61
2023/01/02 09:47:34;;;;;;;10.30;1.52;;;7.40;99.90;;;;;;4985969;28;20110;-61
2023/01/02 09:50:05;;;;;;;11.95;1.63;;;7.40;99.90;;;;;;4967900;28;20050;-60
2023/01/02 09:52:33;;;;;;;4.85;1.52;;;7.50;99.90;;;;;;4966372;28;20046;-60
2023/01/02 09:55:00;;;;;;;5.28;2.05;;;7.50;99.90;;;;;;4984691;28;20110;-61
2023/01/02 09:57:59;;;;;;;13.57;4.30;;;7.60;99.90;;;;;;4968137;28;20077;-60
2023/01/02 10:00:25;;;;;;;6.82;1.55;;;7.70;99.90;;;;;;4931945;28;20108;-60
2023/01/02 10:03:11;;;;;;;8.02;1.88;;;7.70;99.90;;;;;;4954302;28;20047;-60
2023/01/02 10:05:57;;;;;;;5.78;1.30;;;7.80;99.90;;;;;;4983432;28;20473;-61
2023/01/02 10:08:36;;;;;;;7.82;1.38;;;7.90;99.90;;;;;;4966861;28;20073;-61
2023/01/02 10:11:14;;;;;;;11.95;1.73;;;7.90;99.90;;;;;;4982090;28;20096;-61
2023/01/02 10:14:04;;;;;;;11.07;1.88;;;7.90;99.90;;;;;;4965936;28;20093;-60
2023/01/02 10:16:49;;;;;;;9.82;1.65;;;8.00;99.90;;;;;;4969975;28;20066;-61
2023/01/02 10:19:47;;;;;;;11.40;3.00;;;7.90;99.90;;;;;;4965315;28;20051;-61
2023/01/02 10:22:19;;;;;;;4.80;1.58;;;8.00;99.90;;;;;;4976578;28;20078;-61
2023/01/02 10:25:04;;;;;;;8.85;1.88;;;7.90;99.90;;;;;;4949728;28;20118;-61
2023/01/02 10:27:42;;;;;;;7.82;2.10;;;8.00;99.90;;;;;;4961606;28;20525;-60
2023/01/02 10:30:26;;;;;;;11.07;1.98;;;8.00;99.90;;;;;;4979854;28;20061;-61
2023/01/02 10:33:02;;;;;;;7.80;1.83;;;8.00;99.90;;;;;;4983163;28;20049;-58
2023/01/02 10:35:36;;;;;;;6.20;1.85;;;8.00;99.90;;;;;;4962531;28;20046;-59
2023/01/02 10:38:03;;;;;;;7.72;1.52;;;8.00;99.90;;;;;;4966469;28;20058;-59
2023/01/02 10:40:30;;;;;;;5.18;1.88;;;8.00;99.90;;;;;;4950539;28;20074;-62
2023/01/02 10:42:57;;;;;;;12.23;1.65;;;8.00;99.90;;;;;;4623233;28;9999779;-61
2023/01/02 10:45:25;;;;;;;11.40;2.20;;;8.00;99.90;;;;;;4963803;28;20039;-60
2023/01/02 10:47:52;;;;;;;7.70;2.13;;;8.00;99.90;;;;;;4964910;28;20482;-62
2023/01/02 10:50:27;;;;;;;8.80;1.98;;;8.00;99.90;;;;;;4944883;28;20097;-61
2023/01/02 10:53:04;;;;;;;5.47;1.67;;;8.00;99.90;;;;;;4959688;28;20317;-61
2023/01/02 10:55:39;;;;;;;8.45;1.80;;;7.90;99.90;;;;;;4961276;28;20042;-61
2023/01/02 10:58:19;;;;;;;6.57;1.83;;;8.00;99.90;;;;;;4961921;28;20477;-63
2023/01/02 11:00:47;;;;;;;4.97;1.58;;;8.10;99.90;;;;;;4981880;28;20070;-60
2023/01/02 11:03:22;;;;;;;7.18;2.97;;;8.10;99.90;;;;;;4966451;28;20054;-62
2023/01/02 11:05:50;;;;;;;10.23;2.03;;;8.10;99.90;;;;;;4949672;28;20042;-61
2023/01/02 11:08:20;;;;;;;5.65;2.42;;;8.30;99.90;;;;;;4982618;28;20470;-62
2023/01/02 11:10:48;;;;;;;6.93;1.95;;;8.30;99.90;;;;;;4982312;28;20050;-60
2023/01/02 11:13:16;;;;;;;7.93;1.60;;;8.20;99.90;;;;;;4967094;28;20133;-61
2023/01/02 11:15:58;;;;;;;5.78;1.48;;;8.30;99.90;;;;;;4951178;28;20070;-61
2023/01/02 11:18:27;;;;;;;11.80;1.98;;;8.40;99.90;;;;;;4981875;28;20077;-62
2023/01/02 11:20:55;;;;;;;8.88;2.00;;;8.30;99.90;;;;;;4983990;28;20054;-63
2023/01/02 11:23:24;;;;;;;8.05;2.17;;;8.30;99.90;;;;;;4950589;28;20361;-61
2023/01/02 11:25:51;;;;;;;10.95;2.05;;;8.30;99.90;;;;;;4951615;28;20046;-57
2023/01/02 11:28:24;;;;;;;4.40;2.05;;;8.30;99.90;;;;;;4953109;28;20063;-61
2023/01/02 11:31:02;;;;;;;4.88;2.05;;;8.20;99.90;;;;;;4951441;28;20061;-63
2023/01/02 11:33:31;;;;;;;9.20;1.77;;;8.20;99.90;;;;;;4983909;28;20046;-62
2023/01/02 11:36:04;;;;;;;11.13;2.25;;;8.20;99.90;;;;;;4982338;28;20047;-62
2023/01/02 11:38:52;;;;;;;6.78;2.63;;;8.20;99.90;;;;;;4985554;28;20512;-62
2023/01/02 11:43:47;;;;;;;6.30;1.67;;;8.20;99.90;;;;;;4980631;28;20070;-60
2023/01/02 11:44:55;;;;;;;2.70;1.63;;;8.20;99.90;;;;;;4969406;28;20055;-61
2023/01/02 11:47:35;;;;;;;5.97;1.77;;;8.10;99.90;;;;;;4976510;28;20055;-63
2023/01/02 11:50:03;;;;;;;7.13;1.83;;;8.10;99.90;;;;;;4982136;28;20047;-61
2023/01/02 11:52:39;;;;;;;4.88;2.08;;;8.20;99.90;;;;;;4987212;28;20054;-61
2023/01/02 11:55:16;;;;;;;7.03;1.75;;;8.20;99.90;;;;;;4952904;28;20042;-61
2023/01/02 11:57:48;;;;;;;6.47;1.98;;;8.10;99.90;;;;;;4969297;28;20159;-62
2023/01/02 12:00:17;;;;;;;6.05;2.03;;;8.10;99.90;;;;;;4969445;28;20118;-61
2023/01/02 12:02:48;;;;;;;5.63;1.80;;;8.10;99.90;;;;;;4953504;28;20112;-62
2023/01/02 12:05:41;;;;;;;6.88;2.03;;;8.00;99.90;;;;;;4970004;28;20074;-60
2023/01/02 12:08:47;;;;;;;4.30;1.90;;;8.10;99.90;;;;;;4966319;29;20044;-60
2023/01/02 12:11:42;;;;;;;6.03;2.30;;;8.10;99.90;;;;;;4979934;28;20070;-60
2023/01/02 12:14:20;;;;;;;5.55;1.67;;;8.10;99.90;;;;;;4984009;28;20046;-61
2023/01/02 12:17:02;;;;;;;3.70;1.85;;;8.10;99.90;;;;;;4991565;28;20051;-61
2023/01/02 12:19:52;;;;;;;3.45;1.42;;;8.20;99.90;;;;;;4984806;28;20043;-61
2023/01/02 12:22:41;;;;;;;7.60;2.83;;;8.30;99.90;;;;;;4974187;28;20115;-60
2023/01/02 12:25:34;;;;;;;9.27;3.55;;;8.30;99.90;;;;;;4979115;28;20106;-59
2023/01/02 12:28:31;;;;;;;7.10;1.77;;;8.30;99.90;;;;;;4968718;28;20371;-60
2023/01/02 12:31:32;;;;;;;3.63;1.42;;;8.40;99.90;;;;;;4977907;28;20035;-61
2023/01/02 12:34:26;;;;;;;5.28;1.88;;;8.40;99.90;;;;;;4973059;28;20043;-60
2023/01/02 12:37:24;;;;;;;4.65;1.90;;;8.40;99.90;;;;;;4972425;28;20074;-62
2023/01/02 12:39:53;;;;;;;4.75;1.70;;;8.40;99.90;;;;;;4986623;28;20078;-61
2023/01/02 12:42:20;;;;;;;8.80;1.60;;;8.50;99.90;;;;;;4985264;28;20057;-61
2023/01/02 12:44:54;;;;;;;2.97;1.60;;;8.60;99.90;;;;;;4986182;28;20058;-60
2023/01/02 12:47:26;;;;;;;5.20;1.83;;;8.50;99.90;;;;;;4953049;28;20065;-61
2023/01/02 12:50:27;;;;;;;2.75;1.65;;;8.50;99.90;;;;;;4986968;28;20106;-62
2023/01/02 12:53:28;;;;;;;5.05;1.70;;;8.60;99.90;;;;;;4982399;28;20070;-61
2023/01/02 12:56:18;;;;;;;5.60;2.80;;;8.60;99.90;;;;;;4968855;28;20098;-61
2023/01/02 12:59:21;;;;;;;7.28;1.85;;;8.60;99.90;;;;;;4982636;28;20663;-61
2023/01/02 13:02:10;;;;;;;5.03;1.85;;;8.60;99.90;;;;;;4985430;28;20823;-61
2023/01/02 13:04:39;;;;;;;7.70;4.50;;;8.50;99.90;;;;;;4952372;28;20509;-61
2023/01/02 13:07:18;;;;;;;9.98;1.98;;;8.40;99.90;;;;;;4951934;28;20046;-60
2023/01/02 13:09:45;;;;;;;6.53;1.80;;;8.40;99.90;;;;;;4964799;28;20047;-60
2023/01/02 13:12:20;;;;;;;5.47;2.13;;;8.50;99.90;;;;;;4950506;28;20066;-61
2023/01/02 13:15:01;;;;;;;5.43;1.65;;;8.40;99.90;;;;;;4949725;28;20063;-61
2023/01/02 13:17:49;;;;;;;7.15;2.03;;;8.40;99.90;;;;;;4981952;28;20051;-60
2023/01/02 13:20:25;;;;;;;7.10;2.05;;;8.50;99.90;;;;;;4985994;28;20042;-60